sensor_id;sensor_type;location;lat;lon;timestamp;P1;durP1;ratioP1;P2;durP2;ratioP2
18042;SDS011;9146;48.074;11.968;2023-12-29T00:02:09;1.07;;;1.07;;
18042;SDS011;9146;48.074;11.968;2023-12-29T00:04:36;1.80;;;1.47;;
18042;SDS011;9146;48.074;11.968;2023-12-29T00:07:03;1.60;;;1.33;;
18042;SDS011;9146;48.074;11.968;2023-12-29T00:09:29;1.70;;;1.60;;
18042;SDS011;9146;48.074;11.968;2023-12-29T00:12:03;1.40;;;1.30;;
18042;SDS011;9146;48.074;11.968;2023-12-29T00:14:30;1.83;;;1.70;;
18042;SDS011;9146;48.074;11.968;2023-12-29T00:16:59;1.43;;;1.40;;
18042;SDS011;9146;48.074;11.968;2023-12-29T00:19:26;1.53;;;1.43;;
18042;SDS011;9146;48.074;11.968;2023-12-29T00:21:53;1.67;;;1.57;;
18042;SDS011;9146;48.074;11.968;2023-12-29T00:24:19;1.40;;;1.33;;
18042;SDS011;9146;48.074;11.968;2023-12-29T00:26:46;1.90;;;1.80;;
18042;SDS011;9146;48.074;11.968;2023-12-29T00:29:13;2.10;;;1.63;;
18042;SDS011;9146;48.074;11.968;2023-12-29T00:31:40;2.20;;;1.93;;
18042;SDS011;9146;48.074;11.968;2023-12-29T00:34:09;2.93;;;2.23;;
18042;SDS011;9146;48.074;11.968;2023-12-29T00:36:36;1.90;;;1.80;;
18042;SDS011;9146;48.074;11.968;2023-12-29T00:39:02;2.57;;;2.10;;
18042;SDS011;9146;48.074;11.968;2023-12-29T00:41:29;1.90;;;1.70;;
18042;SDS011;9146;48.074;11.968;2023-12-29T00:43:56;1.93;;;1.77;;
18042;SDS011;9146;48.074;11.968;2023-12-29T00:46:23;1.70;;;1.60;;
18042;SDS011;9146;48.074;11.968;2023-12-29T00:48:50;2.00;;;1.90;;
18042;SDS011;9146;48.074;11.968;2023-12-29T00:51:18;1.50;;;1.40;;
18042;SDS011;9146;48.074;11.968;2023-12-29T00:53:45;1.50;;;1.40;;
18042;SDS011;9146;48.074;11.968;2023-12-29T00:56:12;1.80;;;1.70;;
18042;SDS011;9146;48.074;11.968;2023-12-29T00:58:39;2.40;;;1.80;;
18042;SDS011;9146;48.074;11.968;2023-12-29T01:01:07;1.60;;;1.50;;
18042;SDS011;9146;48.074;11.968;2023-12-29T01:03:36;1.50;;;1.40;;
18042;SDS011;9146;48.074;11.968;2023-12-29T01:06:03;1.93;;;1.50;;
18042;SDS011;9146;48.074;11.968;2023-12-29T01:08:32;2.73;;;1.90;;
18042;SDS011;9146;48.074;11.968;2023-12-29T01:10:59;1.50;;;1.40;;
18042;SDS011;9146;48.074;11.968;2023-12-29T01:13:26;1.30;;;1.30;;
18042;SDS011;9146;48.074;11.968;2023-12-29T01:15:54;1.80;;;1.70;;
18042;SDS011;9146;48.074;11.968;2023-12-29T01:18:21;1.63;;;1.53;;
18042;SDS011;9146;48.074;11.968;2023-12-29T01:20:48;1.57;;;1.47;;
18042;SDS011;9146;48.074;11.968;2023-12-29T01:23:15;2.07;;;1.83;;
18042;SDS011;9146;48.074;11.968;2023-12-29T01:25:44;2.90;;;2.00;;
18042;SDS011;9146;48.074;11.968;2023-12-29T01:28:11;1.63;;;1.53;;
18042;SDS011;9146;48.074;11.968;2023-12-29T01:30:38;1.70;;;1.63;;
18042;SDS011;9146;48.074;11.968;2023-12-29T01:33:05;1.77;;;1.60;;
18042;SDS011;9146;48.074;11.968;2023-12-29T01:35:32;1.60;;;1.50;;
18042;SDS011;9146;48.074;11.968;2023-12-29T01:37:58;1.83;;;1.73;;
18042;SDS011;9146;48.074;11.968;2023-12-29T01:40:26;1.70;;;1.60;;
18042;SDS011;9146;48.074;11.968;2023-12-29T01:42:54;2.07;;;1.80;;
18042;SDS011;9146;48.074;11.968;2023-12-29T01:45:21;2.00;;;1.90;;
18042;SDS011;9146;48.074;11.968;2023-12-29T01:47:49;4.70;;;2.10;;
18042;SDS011;9146;48.074;11.968;2023-12-29T01:50:17;3.13;;;2.13;;
18042;SDS011;9146;48.074;11.968;2023-12-29T01:52:45;1.93;;;1.83;;
18042;SDS011;9146;48.074;11.968;2023-12-29T01:55:15;1.93;;;1.83;;
18042;SDS011;9146;48.074;11.968;2023-12-29T01:57:44;2.17;;;1.97;;
18042;SDS011;9146;48.074;11.968;2023-12-29T02:00:14;3.30;;;2.17;;
18042;SDS011;9146;48.074;11.968;2023-12-29T02:02:43;1.60;;;1.50;;
18042;SDS011;9146;48.074;11.968;2023-12-29T02:05:13;2.10;;;1.80;;
18042;SDS011;9146;48.074;11.968;2023-12-29T02:07:41;1.93;;;1.80;;
18042;SDS011;9146;48.074;11.968;2023-12-29T02:10:08;1.87;;;1.77;;
18042;SDS011;9146;48.074;11.968;2023-12-29T02:12:38;1.60;;;1.50;;
18042;SDS011;9146;48.074;11.968;2023-12-29T02:15:06;2.03;;;1.83;;
18042;SDS011;9146;48.074;11.968;2023-12-29T02:17:36;2.00;;;1.80;;
18042;SDS011;9146;48.074;11.968;2023-12-29T02:20:06;1.93;;;1.80;;
18042;SDS011;9146;48.074;11.968;2023-12-29T02:22:35;1.43;;;1.33;;
18042;SDS011;9146;48.074;11.968;2023-12-29T02:25:04;2.03;;;1.53;;
18042;SDS011;9146;48.074;11.968;2023-12-29T02:27:34;3.00;;;1.80;;
18042;SDS011;9146;48.074;11.968;2023-12-29T02:30:11;1.70;;;1.60;;
18042;SDS011;9146;48.074;11.968;2023-12-29T02:32:44;1.50;;;1.40;;
18042;SDS011;9146;48.074;11.968;2023-12-29T02:35:14;2.83;;;2.00;;
18042;SDS011;9146;48.074;11.968;2023-12-29T02:37:44;2.90;;;1.70;;
18042;SDS011;9146;48.074;11.968;2023-12-29T02:40:13;1.63;;;1.53;;
18042;SDS011;9146;48.074;11.968;2023-12-29T02:42:44;3.33;;;1.57;;
18042;SDS011;9146;48.074;11.968;2023-12-29T02:45:12;1.50;;;1.40;;
18042;SDS011;9146;48.074;11.968;2023-12-29T02:47:39;1.80;;;1.70;;
18042;SDS011;9146;48.074;11.968;2023-12-29T02:50:06;1.63;;;1.53;;
18042;SDS011;9146;48.074;11.968;2023-12-29T02:52:33;1.90;;;1.67;;
18042;SDS011;9146;48.074;11.968;2023-12-29T02:55:00;2.73;;;2.03;;
18042;SDS011;9146;48.074;11.968;2023-12-29T02:57:29;1.80;;;1.70;;
18042;SDS011;9146;48.074;11.968;2023-12-29T02:59:56;1.60;;;1.50;;
18042;SDS011;9146;48.074;11.968;2023-12-29T03:02:23;1.77;;;1.67;;
18042;SDS011;9146;48.074;11.968;2023-12-29T03:04:50;1.50;;;1.40;;
18042;SDS011;9146;48.074;11.968;2023-12-29T03:07:17;2.37;;;1.63;;
18042;SDS011;9146;48.074;11.968;2023-12-29T03:09:44;1.27;;;1.27;;
18042;SDS011;9146;48.074;11.968;2023-12-29T03:12:11;1.77;;;1.67;;
18042;SDS011;9146;48.074;11.968;2023-12-29T03:14:39;2.00;;;1.80;;
18042;SDS011;9146;48.074;11.968;2023-12-29T03:17:06;2.23;;;1.60;;
18042;SDS011;9146;48.074;11.968;2023-12-29T03:19:33;4.90;;;1.70;;
18042;SDS011;9146;48.074;11.968;2023-12-29T03:22:00;2.17;;;1.53;;
18042;SDS011;9146;48.074;11.968;2023-12-29T03:24:27;1.70;;;1.60;;
18042;SDS011;9146;48.074;11.968;2023-12-29T03:26:55;2.07;;;1.67;;
18042;SDS011;9146;48.074;11.968;2023-12-29T03:29:22;1.70;;;1.60;;
18042;SDS011;9146;48.074;11.968;2023-12-29T03:31:50;1.77;;;1.50;;
18042;SDS011;9146;48.074;11.968;2023-12-29T03:34:17;1.43;;;1.37;;
18042;SDS011;9146;48.074;11.968;2023-12-29T03:36:45;1.20;;;1.20;;
18042;SDS011;9146;48.074;11.968;2023-12-29T03:39:11;1.40;;;1.40;;
18042;SDS011;9146;48.074;11.968;2023-12-29T03:41:38;1.63;;;1.53;;
18042;SDS011;9146;48.074;11.968;2023-12-29T03:44:05;1.80;;;1.70;;
18042;SDS011;9146;48.074;11.968;2023-12-29T03:46:32;1.93;;;1.50;;
18042;SDS011;9146;48.074;11.968;2023-12-29T03:49:01;2.63;;;1.83;;
18042;SDS011;9146;48.074;11.968;2023-12-29T03:51:28;1.50;;;1.40;;
18042;SDS011;9146;48.074;11.968;2023-12-29T03:53:55;1.47;;;1.37;;
18042;SDS011;9146;48.074;11.968;2023-12-29T03:56:23;1.40;;;1.30;;
18042;SDS011;9146;48.074;11.968;2023-12-29T03:58:50;2.07;;;1.90;;
18042;SDS011;9146;48.074;11.968;2023-12-29T04:01:17;3.70;;;1.33;;
18042;SDS011;9146;48.074;11.968;2023-12-29T04:03:45;1.90;;;1.80;;
18042;SDS011;9146;48.074;11.968;2023-12-29T04:06:13;1.43;;;1.37;;
18042;SDS011;9146;48.074;11.968;2023-12-29T04:08:40;1.40;;;1.30;;
18042;SDS011;9146;48.074;11.968;2023-12-29T04:11:07;1.13;;;1.13;;
18042;SDS011;9146;48.074;11.968;2023-12-29T04:13:35;1.20;;;1.20;;
18042;SDS011;9146;48.074;11.968;2023-12-29T04:16:02;1.50;;;1.40;;
18042;SDS011;9146;48.074;11.968;2023-12-29T04:18:29;1.43;;;1.33;;
18042;SDS011;9146;48.074;11.968;2023-12-29T04:20:56;1.60;;;1.50;;
18042;SDS011;9146;48.074;11.968;2023-12-29T04:23:24;1.67;;;1.57;;
18042;SDS011;9146;48.074;11.968;2023-12-29T04:25:51;1.43;;;1.33;;
18042;SDS011;9146;48.074;11.968;2023-12-29T04:28:18;1.60;;;1.50;;
18042;SDS011;9146;48.074;11.968;2023-12-29T04:30:45;2.03;;;1.50;;
18042;SDS011;9146;48.074;11.968;2023-12-29T04:33:12;1.93;;;1.57;;
18042;SDS011;9146;48.074;11.968;2023-12-29T04:35:39;1.63;;;1.53;;
18042;SDS011;9146;48.074;11.968;2023-12-29T04:38:06;1.67;;;1.57;;
18042;SDS011;9146;48.074;11.968;2023-12-29T04:40:34;1.30;;;1.20;;
18042;SDS011;9146;48.074;11.968;2023-12-29T04:43:03;1.57;;;1.47;;
18042;SDS011;9146;48.074;11.968;2023-12-29T04:45:30;1.40;;;1.30;;
18042;SDS011;9146;48.074;11.968;2023-12-29T04:47:57;1.50;;;1.40;;
18042;SDS011;9146;48.074;11.968;2023-12-29T04:50:24;1.20;;;1.10;;
18042;SDS011;9146;48.074;11.968;2023-12-29T04:52:51;2.43;;;2.10;;
18042;SDS011;9146;48.074;11.968;2023-12-29T04:55:17;5.27;;;3.00;;
18042;SDS011;9146;48.074;11.968;2023-12-29T04:57:46;2.50;;;2.30;;
18042;SDS011;9146;48.074;11.968;2023-12-29T05:00:14;2.23;;;2.13;;
18042;SDS011;9146;48.074;11.968;2023-12-29T05:02:41;2.57;;;2.37;;
18042;SDS011;9146;48.074;11.968;2023-12-29T05:05:09;1.90;;;1.80;;
18042;SDS011;9146;48.074;11.968;2023-12-29T05:07:36;2.37;;;2.10;;
18042;SDS011;9146;48.074;11.968;2023-12-29T05:10:03;3.33;;;2.80;;
18042;SDS011;9146;48.074;11.968;2023-12-29T05:12:30;2.20;;;1.90;;
18042;SDS011;9146;48.074;11.968;2023-12-29T05:14:58;2.90;;;2.40;;
18042;SDS011;9146;48.074;11.968;2023-12-29T05:17:25;2.83;;;2.27;;
18042;SDS011;9146;48.074;11.968;2023-12-29T05:19:52;2.03;;;1.90;;
18042;SDS011;9146;48.074;11.968;2023-12-29T05:22:19;2.33;;;2.13;;
18042;SDS011;9146;48.074;11.968;2023-12-29T05:24:46;3.10;;;2.43;;
18042;SDS011;9146;48.074;11.968;2023-12-29T05:27:13;2.60;;;2.40;;
18042;SDS011;9146;48.074;11.968;2023-12-29T05:29:40;2.23;;;2.00;;
18042;SDS011;9146;48.074;11.968;2023-12-29T05:32:09;3.63;;;2.30;;
18042;SDS011;9146;48.074;11.968;2023-12-29T05:34:40;1.97;;;1.80;;
18042;SDS011;9146;48.074;11.968;2023-12-29T05:37:17;1.87;;;1.70;;
18042;SDS011;9146;48.074;11.968;2023-12-29T05:39:44;1.83;;;1.70;;
18042;SDS011;9146;48.074;11.968;2023-12-29T05:42:13;2.90;;;2.17;;
18042;SDS011;9146;48.074;11.968;2023-12-29T05:44:40;2.10;;;1.90;;
18042;SDS011;9146;48.074;11.968;2023-12-29T05:47:06;1.63;;;1.50;;
18042;SDS011;9146;48.074;11.968;2023-12-29T05:49:35;3.07;;;1.90;;
18042;SDS011;9146;48.074;11.968;2023-12-29T05:52:04;1.73;;;1.63;;
18042;SDS011;9146;48.074;11.968;2023-12-29T05:54:31;3.03;;;1.90;;
18042;SDS011;9146;48.074;11.968;2023-12-29T05:56:58;1.50;;;1.50;;
18042;SDS011;9146;48.074;11.968;2023-12-29T05:59:25;3.00;;;2.70;;
18042;SDS011;9146;48.074;11.968;2023-12-29T06:01:52;1.80;;;1.70;;
18042;SDS011;9146;48.074;11.968;2023-12-29T06:04:20;2.37;;;1.87;;
18042;SDS011;9146;48.074;11.968;2023-12-29T06:06:47;2.27;;;2.07;;
18042;SDS011;9146;48.074;11.968;2023-12-29T06:09:14;1.77;;;1.67;;
18042;SDS011;9146;48.074;11.968;2023-12-29T06:11:41;1.93;;;1.83;;
18042;SDS011;9146;48.074;11.968;2023-12-29T06:14:08;2.10;;;2.00;;
18042;SDS011;9146;48.074;11.968;2023-12-29T06:16:35;3.07;;;2.50;;
18042;SDS011;9146;48.074;11.968;2023-12-29T06:19:02;1.90;;;1.80;;
18042;SDS011;9146;48.074;11.968;2023-12-29T06:21:30;2.20;;;2.00;;
18042;SDS011;9146;48.074;11.968;2023-12-29T06:23:57;2.40;;;2.20;;
18042;SDS011;9146;48.074;11.968;2023-12-29T06:26:24;2.20;;;2.10;;
18042;SDS011;9146;48.074;11.968;2023-12-29T06:28:51;2.00;;;1.90;;
18042;SDS011;9146;48.074;11.968;2023-12-29T06:31:18;2.47;;;2.27;;
18042;SDS011;9146;48.074;11.968;2023-12-29T06:33:45;2.67;;;2.47;;
18042;SDS011;9146;48.074;11.968;2023-12-29T06:36:12;2.30;;;2.10;;
18042;SDS011;9146;48.074;11.968;2023-12-29T06:38:41;3.97;;;2.60;;
18042;SDS011;9146;48.074;11.968;2023-12-29T06:41:13;4.70;;;2.10;;
18042;SDS011;9146;48.074;11.968;2023-12-29T06:43:40;2.80;;;2.40;;
18042;SDS011;9146;48.074;11.968;2023-12-29T06:46:07;3.87;;;2.53;;
18042;SDS011;9146;48.074;11.968;2023-12-29T06:48:35;4.20;;;2.80;;
18042;SDS011;9146;48.074;11.968;2023-12-29T06:51:03;3.33;;;3.03;;
18042;SDS011;9146;48.074;11.968;2023-12-29T06:53:30;3.00;;;2.63;;
18042;SDS011;9146;48.074;11.968;2023-12-29T06:55:58;2.67;;;2.47;;
18042;SDS011;9146;48.074;11.968;2023-12-29T06:58:25;4.27;;;2.40;;
18042;SDS011;9146;48.074;11.968;2023-12-29T07:00:52;3.73;;;2.87;;
18042;SDS011;9146;48.074;11.968;2023-12-29T07:03:19;4.07;;;2.97;;
18042;SDS011;9146;48.074;11.968;2023-12-29T07:05:46;4.03;;;3.00;;
18042;SDS011;9146;48.074;11.968;2023-12-29T07:08:13;2.87;;;2.57;;
18042;SDS011;9146;48.074;11.968;2023-12-29T07:10:40;2.70;;;2.50;;
18042;SDS011;9146;48.074;11.968;2023-12-29T07:13:09;3.53;;;2.67;;
18042;SDS011;9146;48.074;11.968;2023-12-29T07:15:36;3.23;;;2.80;;
18042;SDS011;9146;48.074;11.968;2023-12-29T07:18:03;3.00;;;2.80;;
18042;SDS011;9146;48.074;11.968;2023-12-29T07:20:31;2.70;;;2.47;;
18042;SDS011;9146;48.074;11.968;2023-12-29T07:22:58;3.40;;;2.70;;
18042;SDS011;9146;48.074;11.968;2023-12-29T07:25:25;3.90;;;3.00;;
18042;SDS011;9146;48.074;11.968;2023-12-29T07:27:52;3.17;;;2.90;;
18042;SDS011;9146;48.074;11.968;2023-12-29T07:30:21;3.00;;;2.80;;
18042;SDS011;9146;48.074;11.968;2023-12-29T07:32:48;3.37;;;2.53;;
18042;SDS011;9146;48.074;11.968;2023-12-29T07:35:16;2.70;;;2.30;;
18042;SDS011;9146;48.074;11.968;2023-12-29T07:37:44;2.30;;;2.10;;
18042;SDS011;9146;48.074;11.968;2023-12-29T07:40:12;4.00;;;2.83;;
18042;SDS011;9146;48.074;11.968;2023-12-29T07:42:39;3.10;;;2.70;;
18042;SDS011;9146;48.074;11.968;2023-12-29T07:45:08;6.47;;;3.10;;
18042;SDS011;9146;48.074;11.968;2023-12-29T07:47:37;6.17;;;3.40;;
18042;SDS011;9146;48.074;11.968;2023-12-29T07:50:04;3.90;;;3.03;;
18042;SDS011;9146;48.074;11.968;2023-12-29T07:52:31;3.90;;;2.73;;
18042;SDS011;9146;48.074;11.968;2023-12-29T07:54:58;4.30;;;3.20;;
18042;SDS011;9146;48.074;11.968;2023-12-29T07:57:25;2.33;;;2.13;;
18042;SDS011;9146;48.074;11.968;2023-12-29T07:59:52;3.33;;;3.03;;
18042;SDS011;9146;48.074;11.968;2023-12-29T08:02:19;3.30;;;3.00;;
18042;SDS011;9146;48.074;11.968;2023-12-29T08:04:47;4.70;;;2.87;;
18042;SDS011;9146;48.074;11.968;2023-12-29T08:07:14;3.47;;;2.83;;
18042;SDS011;9146;48.074;11.968;2023-12-29T08:09:41;3.10;;;2.80;;
18042;SDS011;9146;48.074;11.968;2023-12-29T08:12:09;3.00;;;2.77;;
18042;SDS011;9146;48.074;11.968;2023-12-29T08:14:36;2.53;;;2.33;;
18042;SDS011;9146;48.074;11.968;2023-12-29T08:17:03;2.93;;;2.63;;
18042;SDS011;9146;48.074;11.968;2023-12-29T08:19:29;2.47;;;2.30;;
18042;SDS011;9146;48.074;11.968;2023-12-29T08:21:58;4.20;;;3.10;;
18042;SDS011;9146;48.074;11.968;2023-12-29T08:24:25;4.37;;;2.70;;
18042;SDS011;9146;48.074;11.968;2023-12-29T08:26:52;3.47;;;2.80;;
18042;SDS011;9146;48.074;11.968;2023-12-29T08:29:19;4.97;;;2.93;;
18042;SDS011;9146;48.074;11.968;2023-12-29T08:31:45;3.77;;;3.17;;
18042;SDS011;9146;48.074;11.968;2023-12-29T08:34:13;4.33;;;2.30;;
18042;SDS011;9146;48.074;11.968;2023-12-29T08:36:40;2.23;;;2.03;;
18042;SDS011;9146;48.074;11.968;2023-12-29T08:39:08;2.70;;;2.50;;
18042;SDS011;9146;48.074;11.968;2023-12-29T08:41:37;3.37;;;2.07;;
18042;SDS011;9146;48.074;11.968;2023-12-29T08:44:04;3.00;;;2.20;;
18042;SDS011;9146;48.074;11.968;2023-12-29T08:46:30;2.50;;;2.30;;
18042;SDS011;9146;48.074;11.968;2023-12-29T08:48:57;2.37;;;2.10;;
18042;SDS011;9146;48.074;11.968;2023-12-29T08:51:26;2.90;;;2.57;;
18042;SDS011;9146;48.074;11.968;2023-12-29T08:53:53;5.10;;;3.97;;
18042;SDS011;9146;48.074;11.968;2023-12-29T08:56:22;5.50;;;3.33;;
18042;SDS011;9146;48.074;11.968;2023-12-29T08:58:49;5.20;;;3.60;;
18042;SDS011;9146;48.074;11.968;2023-12-29T09:01:16;2.97;;;2.27;;
18042;SDS011;9146;48.074;11.968;2023-12-29T09:03:43;2.00;;;1.80;;
18042;SDS011;9146;48.074;11.968;2023-12-29T09:06:10;2.20;;;2.10;;
18042;SDS011;9146;48.074;11.968;2023-12-29T09:08:37;1.80;;;1.63;;
18042;SDS011;9146;48.074;11.968;2023-12-29T09:11:04;1.70;;;1.60;;
18042;SDS011;9146;48.074;11.968;2023-12-29T09:13:32;1.70;;;1.60;;
18042;SDS011;9146;48.074;11.968;2023-12-29T09:15:59;1.77;;;1.67;;
18042;SDS011;9146;48.074;11.968;2023-12-29T09:18:26;2.30;;;1.60;;
18042;SDS011;9146;48.074;11.968;2023-12-29T09:20:53;1.90;;;1.80;;
18042;SDS011;9146;48.074;11.968;2023-12-29T09:23:20;1.53;;;1.43;;
18042;SDS011;9146;48.074;11.968;2023-12-29T09:25:47;1.57;;;1.47;;
18042;SDS011;9146;48.074;11.968;2023-12-29T09:28:14;1.50;;;1.40;;
18042;SDS011;9146;48.074;11.968;2023-12-29T09:30:42;1.57;;;1.20;;
18042;SDS011;9146;48.074;11.968;2023-12-29T09:33:09;1.70;;;1.60;;
18042;SDS011;9146;48.074;11.968;2023-12-29T09:35:37;1.63;;;1.53;;
18042;SDS011;9146;48.074;11.968;2023-12-29T09:38:04;1.87;;;1.77;;
18042;SDS011;9146;48.074;11.968;2023-12-29T09:40:31;1.57;;;1.43;;
18042;SDS011;9146;48.074;11.968;2023-12-29T09:42:59;2.30;;;1.77;;
18042;SDS011;9146;48.074;11.968;2023-12-29T09:45:29;1.57;;;1.47;;
18042;SDS011;9146;48.074;11.968;2023-12-29T09:47:59;1.90;;;1.60;;
18042;SDS011;9146;48.074;11.968;2023-12-29T09:50:29;1.70;;;1.57;;
18042;SDS011;9146;48.074;11.968;2023-12-29T09:52:55;2.40;;;1.40;;
18042;SDS011;9146;48.074;11.968;2023-12-29T09:55:23;1.50;;;1.40;;
18042;SDS011;9146;48.074;11.968;2023-12-29T09:57:51;1.50;;;1.40;;
18042;SDS011;9146;48.074;11.968;2023-12-29T10:00:18;1.60;;;1.50;;
18042;SDS011;9146;48.074;11.968;2023-12-29T10:02:47;1.40;;;1.30;;
18042;SDS011;9146;48.074;11.968;2023-12-29T10:05:19;1.67;;;1.57;;
18042;SDS011;9146;48.074;11.968;2023-12-29T10:07:46;2.03;;;1.83;;
18042;SDS011;9146;48.074;11.968;2023-12-29T10:10:15;1.77;;;1.67;;
18042;SDS011;9146;48.074;11.968;2023-12-29T10:12:43;1.23;;;1.23;;
18042;SDS011;9146;48.074;11.968;2023-12-29T10:15:15;1.20;;;1.20;;
18042;SDS011;9146;48.074;11.968;2023-12-29T10:17:51;1.70;;;1.60;;
18042;SDS011;9146;48.074;11.968;2023-12-29T10:20:25;2.60;;;1.40;;
18042;SDS011;9146;48.074;11.968;2023-12-29T10:23:03;1.97;;;1.50;;
18042;SDS011;9146;48.074;11.968;2023-12-29T10:25:34;1.60;;;1.40;;
18042;SDS011;9146;48.074;11.968;2023-12-29T10:28:01;1.73;;;1.30;;
18042;SDS011;9146;48.074;11.968;2023-12-29T10:30:28;1.80;;;1.60;;
18042;SDS011;9146;48.074;11.968;2023-12-29T10:32:56;2.47;;;1.30;;
18042;SDS011;9146;48.074;11.968;2023-12-29T10:35:27;2.20;;;1.30;;
18042;SDS011;9146;48.074;11.968;2023-12-29T10:37:53;5.03;;;1.50;;
18042;SDS011;9146;48.074;11.968;2023-12-29T10:40:19;1.30;;;1.10;;
18042;SDS011;9146;48.074;11.968;2023-12-29T10:42:53;2.77;;;1.27;;
18042;SDS011;9146;48.074;11.968;2023-12-29T10:45:22;1.77;;;1.67;;
18042;SDS011;9146;48.074;11.968;2023-12-29T10:47:50;1.43;;;1.33;;
18042;SDS011;9146;48.074;11.968;2023-12-29T10:50:17;1.30;;;1.20;;
18042;SDS011;9146;48.074;11.968;2023-12-29T10:52:46;1.30;;;1.00;;
18042;SDS011;9146;48.074;11.968;2023-12-29T10:55:12;1.67;;;1.27;;
18042;SDS011;9146;48.074;11.968;2023-12-29T10:57:39;2.00;;;1.40;;
18042;SDS011;9146;48.074;11.968;2023-12-29T11:00:07;4.47;;;1.13;;
18042;SDS011;9146;48.074;11.968;2023-12-29T11:02:37;1.00;;;1.00;;
18042;SDS011;9146;48.074;11.968;2023-12-29T11:05:05;1.57;;;1.30;;
18042;SDS011;9146;48.074;11.968;2023-12-29T11:07:36;1.53;;;1.43;;
18042;SDS011;9146;48.074;11.968;2023-12-29T11:10:06;2.20;;;0.90;;
18042;SDS011;9146;48.074;11.968;2023-12-29T11:12:34;0.90;;;0.90;;
18042;SDS011;9146;48.074;11.968;2023-12-29T11:15:03;1.23;;;0.97;;
18042;SDS011;9146;48.074;11.968;2023-12-29T11:17:31;0.90;;;0.90;;
18042;SDS011;9146;48.074;11.968;2023-12-29T11:20:00;1.17;;;1.00;;
18042;SDS011;9146;48.074;11.968;2023-12-29T11:22:29;0.93;;;0.93;;
18042;SDS011;9146;48.074;11.968;2023-12-29T11:24:56;1.40;;;1.27;;
18042;SDS011;9146;48.074;11.968;2023-12-29T11:27:29;0.90;;;0.90;;
18042;SDS011;9146;48.074;11.968;2023-12-29T11:29:57;1.00;;;0.90;;
18042;SDS011;9146;48.074;11.968;2023-12-29T11:32:27;1.07;;;1.07;;
18042;SDS011;9146;48.074;11.968;2023-12-29T11:35:06;0.80;;;0.80;;
18042;SDS011;9146;48.074;11.968;2023-12-29T11:37:57;1.10;;;1.10;;
18042;SDS011;9146;48.074;11.968;2023-12-29T11:40:33;3.13;;;0.90;;
18042;SDS011;9146;48.074;11.968;2023-12-29T11:43:11;0.80;;;0.80;;
18042;SDS011;9146;48.074;11.968;2023-12-29T11:45:42;2.50;;;1.10;;
18042;SDS011;9146;48.074;11.968;2023-12-29T11:48:10;1.40;;;1.30;;
18042;SDS011;9146;48.074;11.968;2023-12-29T11:50:38;2.00;;;0.90;;
18042;SDS011;9146;48.074;11.968;2023-12-29T11:53:06;4.00;;;1.10;;
18042;SDS011;9146;48.074;11.968;2023-12-29T11:55:34;1.17;;;0.90;;
18042;SDS011;9146;48.074;11.968;2023-12-29T11:58:02;0.90;;;0.90;;
18042;SDS011;9146;48.074;11.968;2023-12-29T12:00:45;2.27;;;0.97;;
18042;SDS011;9146;48.074;11.968;2023-12-29T12:03:16;1.27;;;1.17;;
18042;SDS011;9146;48.074;11.968;2023-12-29T12:05:45;1.07;;;0.97;;
18042;SDS011;9146;48.074;11.968;2023-12-29T12:08:31;2.80;;;1.17;;
18042;SDS011;9146;48.074;11.968;2023-12-29T12:14:04;1.00;;;1.00;;
18042;SDS011;9146;48.074;11.968;2023-12-29T12:16:48;0.80;;;0.80;;
18042;SDS011;9146;48.074;11.968;2023-12-29T12:19:15;1.27;;;1.00;;
18042;SDS011;9146;48.074;11.968;2023-12-29T12:21:46;1.13;;;1.03;;
18042;SDS011;9146;48.074;11.968;2023-12-29T12:24:14;2.13;;;0.90;;
18042;SDS011;9146;48.074;11.968;2023-12-29T12:26:44;1.00;;;1.00;;
18042;SDS011;9146;48.074;11.968;2023-12-29T12:29:12;1.60;;;1.50;;
18042;SDS011;9146;48.074;11.968;2023-12-29T12:31:52;1.80;;;1.70;;
18042;SDS011;9146;48.074;11.968;2023-12-29T12:34:20;1.07;;;1.07;;
18042;SDS011;9146;48.074;11.968;2023-12-29T12:36:50;1.63;;;1.10;;
18042;SDS011;9146;48.074;11.968;2023-12-29T12:39:17;1.50;;;1.40;;
18042;SDS011;9146;48.074;11.968;2023-12-29T12:41:45;1.10;;;1.07;;
18042;SDS011;9146;48.074;11.968;2023-12-29T12:44:12;1.03;;;1.03;;
18042;SDS011;9146;48.074;11.968;2023-12-29T12:46:41;0.80;;;0.80;;
18042;SDS011;9146;48.074;11.968;2023-12-29T12:49:17;0.93;;;0.93;;
18042;SDS011;9146;48.074;11.968;2023-12-29T12:51:44;1.07;;;1.07;;
18042;SDS011;9146;48.074;11.968;2023-12-29T12:54:11;1.17;;;1.10;;
18042;SDS011;9146;48.074;11.968;2023-12-29T12:56:43;1.30;;;1.20;;
18042;SDS011;9146;48.074;11.968;2023-12-29T12:59:10;1.30;;;0.97;;
18042;SDS011;9146;48.074;11.968;2023-12-29T13:01:38;0.80;;;0.80;;
18042;SDS011;9146;48.074;11.968;2023-12-29T13:04:05;1.67;;;1.57;;
18042;SDS011;9146;48.074;11.968;2023-12-29T13:06:35;1.00;;;1.00;;
18042;SDS011;9146;48.074;11.968;2023-12-29T13:09:06;2.03;;;1.07;;
18042;SDS011;9146;48.074;11.968;2023-12-29T13:11:36;1.00;;;1.00;;
18042;SDS011;9146;48.074;11.968;2023-12-29T13:14:08;1.53;;;1.10;;
18042;SDS011;9146;48.074;11.968;2023-12-29T13:16:45;3.30;;;1.07;;
18042;SDS011;9146;48.074;11.968;2023-12-29T13:19:14;3.90;;;1.87;;
18042;SDS011;9146;48.074;11.968;2023-12-29T13:21:43;1.00;;;1.00;;
18042;SDS011;9146;48.074;11.968;2023-12-29T13:24:12;0.83;;;0.83;;
18042;SDS011;9146;48.074;11.968;2023-12-29T13:26:40;1.70;;;1.23;;
18042;SDS011;9146;48.074;11.968;2023-12-29T13:29:08;1.73;;;1.10;;
18042;SDS011;9146;48.074;11.968;2023-12-29T13:31:35;1.20;;;1.20;;
18042;SDS011;9146;48.074;11.968;2023-12-29T13:34:03;1.17;;;1.07;;
18042;SDS011;9146;48.074;11.968;2023-12-29T13:36:40;2.00;;;1.00;;
18042;SDS011;9146;48.074;11.968;2023-12-29T13:39:19;1.07;;;1.07;;
18042;SDS011;9146;48.074;11.968;2023-12-29T13:41:52;0.90;;;0.90;;
18042;SDS011;9146;48.074;11.968;2023-12-29T13:44:22;1.37;;;1.20;;
18042;SDS011;9146;48.074;11.968;2023-12-29T13:46:51;1.40;;;1.30;;
18042;SDS011;9146;48.074;11.968;2023-12-29T13:49:19;1.20;;;1.10;;
18042;SDS011;9146;48.074;11.968;2023-12-29T13:51:47;1.63;;;1.53;;
18042;SDS011;9146;48.074;11.968;2023-12-29T13:54:14;2.20;;;1.50;;
18042;SDS011;9146;48.074;11.968;2023-12-29T13:56:50;1.50;;;1.40;;
18042;SDS011;9146;48.074;11.968;2023-12-29T13:59:18;2.20;;;1.70;;
18042;SDS011;9146;48.074;11.968;2023-12-29T14:01:45;1.93;;;1.80;;
18042;SDS011;9146;48.074;11.968;2023-12-29T14:04:13;1.63;;;1.53;;
18042;SDS011;9146;48.074;11.968;2023-12-29T14:06:49;1.20;;;1.10;;
18042;SDS011;9146;48.074;11.968;2023-12-29T14:09:18;2.13;;;1.00;;
18042;SDS011;9146;48.074;11.968;2023-12-29T14:11:45;1.40;;;1.30;;
18042;SDS011;9146;48.074;11.968;2023-12-29T14:14:13;1.40;;;1.20;;
18042;SDS011;9146;48.074;11.968;2023-12-29T14:16:40;1.90;;;1.30;;
18042;SDS011;9146;48.074;11.968;2023-12-29T14:19:08;1.30;;;1.20;;
18042;SDS011;9146;48.074;11.968;2023-12-29T14:21:36;1.03;;;1.03;;
18042;SDS011;9146;48.074;11.968;2023-12-29T14:24:11;1.30;;;1.20;;
18042;SDS011;9146;48.074;11.968;2023-12-29T14:26:40;1.30;;;1.23;;
18042;SDS011;9146;48.074;11.968;2023-12-29T14:29:12;1.43;;;1.20;;
18042;SDS011;9146;48.074;11.968;2023-12-29T14:31:39;2.30;;;1.20;;
18042;SDS011;9146;48.074;11.968;2023-12-29T14:34:07;1.20;;;0.90;;
18042;SDS011;9146;48.074;11.968;2023-12-29T14:36:35;1.10;;;1.10;;
18042;SDS011;9146;48.074;11.968;2023-12-29T14:39:04;1.10;;;1.10;;
18042;SDS011;9146;48.074;11.968;2023-12-29T14:41:33;1.00;;;1.00;;
18042;SDS011;9146;48.074;11.968;2023-12-29T14:44:00;1.03;;;0.90;;
18042;SDS011;9146;48.074;11.968;2023-12-29T14:46:27;2.50;;;1.60;;
18042;SDS011;9146;48.074;11.968;2023-12-29T14:48:55;2.03;;;1.30;;
18042;SDS011;9146;48.074;11.968;2023-12-29T14:51:23;3.20;;;1.27;;
18042;SDS011;9146;48.074;11.968;2023-12-29T14:53:50;1.60;;;1.30;;
18042;SDS011;9146;48.074;11.968;2023-12-29T14:56:17;1.30;;;1.20;;
18042;SDS011;9146;48.074;11.968;2023-12-29T14:58:45;1.50;;;1.40;;